createdAt,value
2022-11-13T17:18:58.899Z,16.02
2022-11-13T17:20:19.629Z,16.02
2022-11-13T17:21:44.256Z,16.01
2022-11-13T17:23:04.910Z,15.98
2022-11-13T17:24:25.280Z,15.98
2022-11-13T17:25:47.085Z,15.99
2022-11-13T17:27:09.068Z,15.97
2022-11-13T17:28:30.551Z,15.98
2022-11-13T17:29:50.958Z,15.98
2022-11-13T17:31:12.258Z,15.97
2022-11-13T17:32:32.683Z,15.95
2022-11-13T17:33:54.636Z,15.94
2022-11-13T17:35:15.234Z,15.93
2022-11-13T17:36:36.426Z,15.92
2022-11-13T17:37:56.756Z,15.91
2022-11-13T17:39:17.198Z,15.90
2022-11-13T17:40:37.553Z,15.90
2022-11-13T17:41:57.817Z,15.86
2022-11-13T17:43:18.256Z,15.87
2022-11-13T17:44:38.321Z,15.87
2022-11-13T17:45:59.579Z,15.86
2022-11-13T17:47:20.459Z,15.82
2022-11-13T17:48:41.025Z,15.82
2022-11-13T17:50:07.048Z,15.77
2022-11-13T17:51:28.040Z,15.76
2022-11-13T17:52:48.758Z,15.75
2022-11-13T17:54:09.180Z,15.71
2022-11-13T17:55:29.845Z,15.71
2022-11-13T17:56:50.390Z,15.71
2022-11-13T17:58:11.000Z,15.71
2022-11-13T17:59:31.141Z,15.71
2022-11-13T18:00:51.955Z,15.70
2022-11-13T18:02:12.190Z,15.70
2022-11-13T18:03:33.839Z,15.69
2022-11-13T18:04:57.695Z,15.69
2022-11-13T18:06:20.177Z,15.69
2022-11-13T18:07:41.022Z,15.70
2022-11-13T18:09:01.713Z,15.71
2022-11-13T18:10:22.144Z,15.68
2022-11-13T18:11:42.554Z,15.65
2022-11-13T18:13:04.506Z,15.67
2022-11-13T18:14:25.323Z,15.69
2022-11-13T18:15:45.487Z,15.70
2022-11-13T18:17:05.739Z,15.68
2022-11-13T18:18:26.515Z,15.67
2022-11-13T18:19:46.842Z,15.62
2022-11-13T18:21:25.040Z,15.63
2022-11-13T18:22:45.459Z,15.63
2022-11-13T18:24:12.276Z,15.64
2022-11-13T18:25:39.447Z,15.64
2022-11-13T18:27:00.187Z,15.64
2022-11-13T18:28:20.887Z,15.64
2022-11-13T18:29:41.358Z,15.64
2022-11-13T18:31:09.423Z,15.63
2022-11-13T18:32:29.894Z,15.61
2022-11-13T18:33:50.374Z,15.59
2022-11-13T18:35:11.065Z,15.54
2022-11-13T18:36:33.803Z,15.53
2022-11-13T18:37:55.821Z,15.52
2022-11-13T18:39:17.032Z,15.52
2022-11-13T18:40:39.983Z,15.52
2022-11-13T18:42:00.615Z,15.52
2022-11-13T18:43:20.699Z,15.52
2022-11-13T18:44:40.975Z,15.52
2022-11-13T18:46:07.403Z,15.51
2022-11-13T18:47:27.981Z,15.50
2022-11-13T18:48:49.062Z,15.49
2022-11-13T18:50:09.673Z,15.47
2022-11-13T18:51:33.519Z,15.45
2022-11-13T18:52:55.353Z,15.40
2022-11-13T18:54:15.664Z,15.41
2022-11-13T18:55:35.947Z,15.41
2022-11-13T18:56:56.885Z,15.41
2022-11-13T18:58:17.477Z,15.41
2022-11-13T18:59:37.854Z,15.41
2022-11-13T19:01:08.931Z,15.40
2022-11-13T19:02:30.971Z,15.40
2022-11-13T19:04:21.087Z,15.39
2022-11-13T19:05:33.236Z,15.38
2022-11-13T19:06:53.635Z,15.39
2022-11-13T19:08:14.226Z,15.39
2022-11-13T19:09:34.541Z,15.38
2022-11-13T19:10:54.590Z,15.35
2022-11-13T19:12:15.282Z,15.37
2022-11-13T19:13:38.896Z,15.35
2022-11-13T19:14:59.412Z,15.37
2022-11-13T19:16:22.408Z,15.39
2022-11-13T19:17:42.968Z,15.38
2022-11-13T19:19:06.216Z,15.38
2022-11-13T19:20:26.735Z,15.33
2022-11-13T19:21:47.443Z,15.35
2022-11-13T19:23:09.366Z,15.32
2022-11-13T19:24:30.191Z,15.33
2022-11-13T19:25:50.730Z,15.33
2022-11-13T19:27:11.539Z,15.32
2022-11-13T19:28:31.967Z,15.31
2022-11-13T19:29:52.641Z,15.26
2022-11-13T19:31:14.697Z,15.26
2022-11-13T19:32:35.769Z,15.22
2022-11-13T19:34:01.635Z,15.22
2022-11-13T19:35:22.509Z,15.22
2022-11-13T19:36:44.355Z,15.22
2022-11-13T19:38:05.625Z,15.22
2022-11-13T19:39:26.186Z,15.21
2022-11-13T19:40:49.054Z,15.19
2022-11-13T19:42:10.690Z,15.18
2022-11-13T19:43:32.937Z,15.16
2022-11-13T19:44:53.037Z,15.15
2022-11-13T19:46:14.748Z,15.16
2022-11-13T19:47:35.265Z,15.13
2022-11-13T19:48:56.385Z,15.14
2022-11-13T19:50:18.265Z,15.11
2022-11-13T19:51:39.150Z,15.12
2022-11-13T19:52:59.227Z,15.12
2022-11-13T19:54:19.600Z,15.11
2022-11-13T19:55:40.306Z,15.11
2022-11-13T19:57:00.803Z,15.09
2022-11-13T19:58:22.474Z,15.10
2022-11-13T19:59:42.832Z,15.07
2022-11-13T20:01:15.618Z,15.09
2022-11-13T20:02:36.631Z,15.08
2022-11-13T20:03:59.747Z,15.06
2022-11-13T20:05:20.316Z,15.04
2022-11-13T20:06:40.956Z,15.04
2022-11-13T20:08:01.598Z,15.04
2022-11-13T20:09:21.949Z,15.04
2022-11-13T20:10:42.380Z,15.04
2022-11-13T20:12:03.148Z,15.04
2022-11-13T20:13:24.563Z,15.02
2022-11-13T20:14:45.395Z,15.03
2022-11-13T20:16:07.342Z,15.05
2022-11-13T20:17:28.011Z,15.05
2022-11-13T20:18:49.401Z,15.04
2022-11-13T20:20:10.695Z,15.03
2022-11-13T20:21:31.391Z,15.03
2022-11-13T20:22:52.353Z,15.03
2022-11-13T20:24:13.017Z,15.04
2022-11-13T20:25:33.777Z,15.04
2022-11-13T20:26:53.997Z,15.03
2022-11-13T20:28:14.737Z,14.99
2022-11-13T20:29:35.362Z,14.95
2022-11-13T20:31:06.608Z,14.88
2022-11-13T20:32:26.886Z,14.84
2022-11-13T20:33:49.207Z,14.82
2022-11-13T20:35:09.893Z,14.79
2022-11-13T20:36:30.432Z,14.78
2022-11-13T20:37:51.093Z,14.76
2022-11-13T20:39:13.186Z,14.71
2022-11-13T20:40:34.857Z,14.68
2022-11-13T20:41:55.286Z,14.69
2022-11-13T20:43:15.599Z,14.68
2022-11-13T20:44:36.019Z,14.66
2022-11-13T20:46:07.021Z,14.61
2022-11-13T20:47:27.406Z,14.61
2022-11-13T20:48:48.181Z,14.58
2022-11-13T20:50:09.105Z,14.60
2022-11-13T20:51:30.009Z,14.62
2022-11-13T20:52:50.439Z,14.61
2022-11-13T20:54:10.734Z,14.60
2022-11-13T20:55:31.301Z,14.60
2022-11-13T20:56:52.033Z,14.61
2022-11-13T20:58:13.067Z,14.61
2022-11-13T20:59:34.019Z,14.62
2022-11-13T21:01:04.682Z,14.62
2022-11-13T21:02:25.082Z,14.62
2022-11-13T21:03:46.553Z,14.62
2022-11-13T21:05:07.219Z,14.63
2022-11-13T21:06:28.076Z,14.64
2022-11-13T21:07:48.597Z,14.65
2022-11-13T21:09:14.039Z,14.65
2022-11-13T21:10:34.812Z,14.65
2022-11-13T21:11:55.680Z,14.66
2022-11-13T21:13:16.345Z,14.66
2022-11-13T21:14:36.765Z,14.65
2022-11-13T21:15:57.159Z,14.65
2022-11-13T21:17:17.570Z,14.61
2022-11-13T21:18:37.954Z,14.62
2022-11-13T21:19:58.894Z,14.62
2022-11-13T21:21:21.282Z,14.62
2022-11-13T21:22:41.800Z,14.62
2022-11-13T21:24:02.594Z,14.62
2022-11-13T21:25:23.434Z,14.58
2022-11-13T21:26:44.150Z,14.60
2022-11-13T21:28:04.686Z,14.60
2022-11-13T21:29:24.648Z,14.59
2022-11-13T21:30:44.938Z,14.57
2022-11-13T21:32:05.429Z,14.57
2022-11-13T21:33:27.343Z,14.56
2022-11-13T21:34:47.550Z,14.55
2022-11-13T21:36:28.842Z,14.55
2022-11-13T21:37:49.584Z,14.56
2022-11-13T21:39:10.079Z,14.56
2022-11-13T21:40:30.613Z,14.53
2022-11-13T21:41:52.862Z,14.54
2022-11-13T21:43:13.595Z,14.53
2022-11-13T21:44:34.403Z,14.57
2022-11-13T21:45:54.569Z,14.58
2022-11-13T21:47:15.184Z,14.57
2022-11-13T21:48:36.677Z,14.58
2022-11-13T21:49:57.327Z,14.60
2022-11-13T21:51:17.724Z,14.60
2022-11-13T21:52:38.328Z,14.62
2022-11-13T21:53:59.336Z,14.62
2022-11-13T21:55:19.756Z,14.63
2022-11-13T21:56:41.498Z,14.65
2022-11-13T21:58:02.238Z,14.65
2022-11-13T21:59:24.289Z,14.64
2022-11-13T22:00:45.062Z,14.63
2022-11-13T22:02:05.453Z,14.64
2022-11-13T22:03:27.524Z,14.64
2022-11-13T22:04:50.230Z,14.65
2022-11-13T22:06:25.707Z,14.65
2022-11-13T22:07:47.257Z,14.65
2022-11-13T22:09:14.281Z,14.66
2022-11-13T22:10:34.813Z,14.66
2022-11-13T22:11:55.049Z,14.65
2022-11-13T22:13:16.007Z,14.65
2022-11-13T22:14:36.693Z,14.64
2022-11-13T22:15:57.409Z,14.63
2022-11-13T22:17:17.335Z,14.60
2022-11-13T22:18:38.137Z,14.59
2022-11-13T22:19:58.846Z,14.58
2022-11-13T22:21:20.702Z,14.57
2022-11-13T22:22:41.201Z,14.58
2022-11-13T22:24:02.041Z,14.58
2022-11-13T22:25:22.773Z,14.56
2022-11-13T22:26:49.881Z,14.54
2022-11-13T22:28:10.277Z,14.53
2022-11-13T22:29:30.597Z,14.53
2022-11-13T22:30:50.965Z,14.54
2022-11-13T22:32:11.368Z,14.52
2022-11-13T22:33:34.802Z,14.51
2022-11-13T22:34:55.104Z,14.52
2022-11-13T22:36:21.222Z,14.51
2022-11-13T22:37:41.240Z,14.49
2022-11-13T22:39:01.873Z,14.49
2022-11-13T22:40:22.308Z,14.47
2022-11-13T22:41:43.326Z,14.46
2022-11-13T22:43:03.638Z,14.45
2022-11-13T22:44:28.594Z,14.44
2022-11-13T22:46:01.107Z,14.44
2022-11-13T22:47:21.480Z,14.44
2022-11-13T22:48:42.849Z,14.44
2022-11-13T22:50:04.749Z,14.41
2022-11-13T22:51:27.459Z,14.42
2022-11-13T22:52:48.013Z,14.43
2022-11-13T22:54:14.983Z,14.43
2022-11-13T22:55:36.603Z,14.43
2022-11-13T22:57:03.446Z,14.43
2022-11-13T22:58:40.208Z,14.42
2022-11-13T23:00:01.137Z,14.41
2022-11-13T23:01:24.114Z,14.42
2022-11-13T23:02:47.474Z,14.43
2022-11-13T23:04:12.564Z,14.45
2022-11-13T23:05:35.558Z,14.47
2022-11-13T23:06:56.033Z,14.48
2022-11-13T23:08:16.657Z,14.49
2022-11-13T23:09:37.096Z,14.51
2022-11-13T23:10:57.985Z,14.47
2022-11-13T23:12:19.502Z,14.46
2022-11-13T23:13:45.111Z,14.47
2022-11-13T23:15:06.425Z,14.46
2022-11-13T23:16:27.390Z,14.45
2022-11-13T23:17:47.449Z,14.44
2022-11-13T23:19:08.585Z,14.43
2022-11-13T23:20:29.161Z,14.39
2022-11-13T23:21:49.375Z,14.39
2022-11-13T23:23:10.169Z,14.38
2022-11-13T23:24:30.388Z,14.37
2022-11-13T23:25:51.362Z,14.37
2022-11-13T23:27:11.256Z,14.36
2022-11-13T23:28:32.200Z,14.32
2022-11-13T23:29:53.160Z,14.34
2022-11-13T23:31:14.041Z,14.34
2022-11-13T23:32:34.574Z,14.33
2022-11-13T23:33:54.590Z,14.32
2022-11-13T23:35:14.685Z,14.31
2022-11-13T23:36:35.237Z,14.31
2022-11-13T23:37:55.457Z,14.32
2022-11-13T23:39:15.720Z,14.32
2022-11-13T23:40:36.299Z,14.28
2022-11-13T23:41:56.674Z,14.28
2022-11-13T23:43:16.894Z,14.26
2022-11-13T23:44:36.977Z,14.27
2022-11-13T23:45:57.729Z,14.27
2022-11-13T23:47:18.338Z,14.25
2022-11-13T23:48:40.107Z,14.24
2022-11-13T23:50:00.615Z,14.28
2022-11-13T23:51:20.865Z,14.31
2022-11-13T23:52:41.205Z,14.33
2022-11-13T23:54:02.364Z,14.35
2022-11-13T23:55:23.164Z,14.38
2022-11-13T23:56:43.351Z,14.40
2022-11-13T23:58:05.692Z,14.40
2022-11-13T23:59:26.331Z,14.42
